Tidehead, Canada
Current Conditions -  °F | °C
As of 12:00 PM on Thursday 29 Jan 2015 (Local Time) from CZBF Reporting Station
Clear Clear  
Wind Chill: 23°   Ceiling: Unl
Heat Index: 23°   Visibility: 15mi
Dew Point:   Wind: 0mph
Humidity: 54%   Direction: NA
Pressure: 30.22"   Gusts: NA
Location:  47.98°N, 66.79°W
Report Text: CZBF 291600Z 00000KT 15SM SKC M05/M13 A3022 RMK SLP238
Loading
Personal Weather Stations






























Interactive Weather Map New forecast layout! Learn more

10-Day Weather Forecast

Advertisements
Track Severe Weather on mobile